sensor_id;sensor_type;location;lat;lon;timestamp;pressure;altitude;pressure_sealevel;temperature;humidity
76022;BME280;64718;52.124;6.226;2022-12-31T00:01:26;100237.66;;;11.42;100.00
76022;BME280;64718;52.124;6.226;2022-12-31T00:03:55;100233.78;;;11.49;100.00
76022;BME280;64718;52.124;6.226;2022-12-31T00:06:25;100226.72;;;11.51;100.00
76022;BME280;64718;52.124;6.226;2022-12-31T00:08:54;100237.75;;;11.56;100.00
76022;BME280;64718;52.124;6.226;2022-12-31T00:11:23;100234.88;;;11.61;100.00
76022;BME280;64718;52.124;6.226;2022-12-31T00:13:50;100226.16;;;11.62;100.00
76022;BME280;64718;52.124;6.226;2022-12-31T00:16:18;100236.66;;;11.60;100.00
76022;BME280;64718;52.124;6.226;2022-12-31T00:18:48;100230.56;;;11.91;98.51
76022;BME280;64718;52.124;6.226;2022-12-31T00:21:17;100224.22;;;11.95;98.10
76022;BME280;64718;52.124;6.226;2022-12-31T00:23:44;100228.69;;;11.93;98.45
76022;BME280;64718;52.124;6.226;2022-12-31T00:26:13;100242.47;;;11.95;98.58
76022;BME280;64718;52.124;6.226;2022-12-31T00:28:40;100251.97;;;11.96;98.77
76022;BME280;64718;52.124;6.226;2022-12-31T00:31:09;100251.31;;;11.93;99.18
76022;BME280;64718;52.124;6.226;2022-12-31T00:33:36;100238.72;;;11.85;99.47
76022;BME280;64718;52.124;6.226;2022-12-31T00:36:09;100237.22;;;11.81;99.78
76022;BME280;64718;52.124;6.226;2022-12-31T00:38:37;100234.44;;;11.84;99.53
76022;BME280;64718;52.124;6.226;2022-12-31T00:41:04;100239.88;;;11.95;98.72
76022;BME280;64718;52.124;6.226;2022-12-31T00:43:32;100251.31;;;11.93;98.56
76022;BME280;64718;52.124;6.226;2022-12-31T00:45:59;100258.72;;;11.85;98.77
76022;BME280;64718;52.124;6.226;2022-12-31T00:48:26;100254.34;;;11.85;98.76
76022;BME280;64718;52.124;6.226;2022-12-31T00:50:54;100257.72;;;11.87;98.60
76022;BME280;64718;52.124;6.226;2022-12-31T00:53:22;100253.88;;;11.79;98.80
76022;BME280;64718;52.124;6.226;2022-12-31T00:55:49;100269.50;;;11.79;98.62
76022;BME280;64718;52.124;6.226;2022-12-31T00:58:16;100270.50;;;11.76;99.14
76022;BME280;64718;52.124;6.226;2022-12-31T01:00:43;100269.81;;;11.72;99.04
76022;BME280;64718;52.124;6.226;2022-12-31T01:03:09;100271.75;;;11.69;98.77
76022;BME280;64718;52.124;6.226;2022-12-31T01:05:36;100272.94;;;11.63;99.03
76022;BME280;64718;52.124;6.226;2022-12-31T01:08:05;100270.00;;;11.69;98.46
76022;BME280;64718;52.124;6.226;2022-12-31T01:10:33;100267.56;;;11.66;98.65
76022;BME280;64718;52.124;6.226;2022-12-31T01:13:17;100275.19;;;11.54;99.13
76022;BME280;64718;52.124;6.226;2022-12-31T01:15:43;100275.53;;;11.48;99.50
76022;BME280;64718;52.124;6.226;2022-12-31T01:18:10;100288.38;;;11.51;99.69
76022;BME280;64718;52.124;6.226;2022-12-31T01:20:37;100289.59;;;11.61;98.86
76022;BME280;64718;52.124;6.226;2022-12-31T01:23:05;100282.16;;;11.53;99.51
76022;BME280;64718;52.124;6.226;2022-12-31T01:25:35;100291.84;;;11.51;99.25
76022;BME280;64718;52.124;6.226;2022-12-31T01:28:02;100292.66;;;11.52;98.85
76022;BME280;64718;52.124;6.226;2022-12-31T01:30:29;100290.31;;;11.47;98.77
76022;BME280;64718;52.124;6.226;2022-12-31T01:32:56;100300.66;;;11.49;98.86
76022;BME280;64718;52.124;6.226;2022-12-31T01:35:23;100305.19;;;11.45;98.90
76022;BME280;64718;52.124;6.226;2022-12-31T01:37:49;100302.09;;;11.38;99.43
76022;BME280;64718;52.124;6.226;2022-12-31T01:40:16;100298.72;;;11.36;99.04
76022;BME280;64718;52.124;6.226;2022-12-31T01:42:44;100303.09;;;11.36;98.89
76022;BME280;64718;52.124;6.226;2022-12-31T01:45:12;100294.88;;;11.28;99.54
76022;BME280;64718;52.124;6.226;2022-12-31T01:47:41;100288.91;;;11.26;99.15
76022;BME280;64718;52.124;6.226;2022-12-31T01:50:15;100281.34;;;11.21;99.52
76022;BME280;64718;52.124;6.226;2022-12-31T01:52:45;100293.59;;;11.19;99.62
76022;BME280;64718;52.124;6.226;2022-12-31T01:55:15;100287.81;;;11.14;100.00
76022;BME280;64718;52.124;6.226;2022-12-31T01:57:46;100278.66;;;11.07;100.00
76022;BME280;64718;52.124;6.226;2022-12-31T02:00:15;100292.41;;;11.09;100.00
76022;BME280;64718;52.124;6.226;2022-12-31T02:02:42;100285.78;;;11.03;100.00
76022;BME280;64718;52.124;6.226;2022-12-31T02:05:14;100289.97;;;11.06;100.00
76022;BME280;64718;52.124;6.226;2022-12-31T02:07:42;100293.41;;;11.06;100.00
76022;BME280;64718;52.124;6.226;2022-12-31T02:10:09;100292.75;;;11.03;100.00
76022;BME280;64718;52.124;6.226;2022-12-31T02:12:36;100313.16;;;11.11;100.00
76022;BME280;64718;52.124;6.226;2022-12-31T02:15:05;100307.44;;;11.04;100.00
76022;BME280;64718;52.124;6.226;2022-12-31T02:17:36;100299.25;;;10.94;100.00
76022;BME280;64718;52.124;6.226;2022-12-31T02:23:38;100310.75;;;10.90;100.00
76022;BME280;64718;52.124;6.226;2022-12-31T02:26:27;100316.03;;;10.89;100.00
76022;BME280;64718;52.124;6.226;2022-12-31T02:29:30;100322.66;;;10.94;100.00
76022;BME280;64718;52.124;6.226;2022-12-31T02:32:06;100320.75;;;10.98;100.00
76022;BME280;64718;52.124;6.226;2022-12-31T02:34:38;100328.56;;;10.98;100.00
76022;BME280;64718;52.124;6.226;2022-12-31T02:37:09;100320.63;;;11.01;100.00
76022;BME280;64718;52.124;6.226;2022-12-31T02:39:38;100328.63;;;10.96;100.00
76022;BME280;64718;52.124;6.226;2022-12-31T02:42:05;100315.63;;;10.96;100.00
76022;BME280;64718;52.124;6.226;2022-12-31T02:44:34;100305.13;;;10.98;100.00
76022;BME280;64718;52.124;6.226;2022-12-31T02:47:14;100271.53;;;10.93;100.00
76022;BME280;64718;52.124;6.226;2022-12-31T02:49:49;100273.16;;;10.96;100.00
76022;BME280;64718;52.124;6.226;2022-12-31T02:52:33;100252.66;;;10.90;100.00
76022;BME280;64718;52.124;6.226;2022-12-31T02:55:08;100255.59;;;10.84;100.00
76022;BME280;64718;52.124;6.226;2022-12-31T02:57:40;100268.69;;;10.82;100.00
76022;BME280;64718;52.124;6.226;2022-12-31T03:00:10;100256.84;;;10.76;100.00
76022;BME280;64718;52.124;6.226;2022-12-31T03:02:58;100256.16;;;10.73;100.00
76022;BME280;64718;52.124;6.226;2022-12-31T03:05:28;100254.41;;;10.73;100.00
76022;BME280;64718;52.124;6.226;2022-12-31T03:07:56;100256.06;;;10.74;100.00
76022;BME280;64718;52.124;6.226;2022-12-31T03:10:22;100260.69;;;10.69;100.00
76022;BME280;64718;52.124;6.226;2022-12-31T03:12:49;100266.72;;;10.70;100.00
76022;BME280;64718;52.124;6.226;2022-12-31T03:15:18;100273.84;;;10.66;100.00
76022;BME280;64718;52.124;6.226;2022-12-31T03:17:48;100276.59;;;10.63;100.00
76022;BME280;64718;52.124;6.226;2022-12-31T03:20:16;100284.16;;;10.68;100.00
76022;BME280;64718;52.124;6.226;2022-12-31T03:23:00;100291.13;;;10.67;100.00
76022;BME280;64718;52.124;6.226;2022-12-31T03:25:28;100297.19;;;10.68;100.00
76022;BME280;64718;52.124;6.226;2022-12-31T03:27:57;100291.88;;;10.69;100.00
76022;BME280;64718;52.124;6.226;2022-12-31T03:30:24;100294.50;;;10.69;100.00
76022;BME280;64718;52.124;6.226;2022-12-31T03:32:51;100296.41;;;10.66;100.00
76022;BME280;64718;52.124;6.226;2022-12-31T03:35:20;100306.66;;;10.69;100.00
76022;BME280;64718;52.124;6.226;2022-12-31T03:37:48;100288.59;;;10.66;100.00
76022;BME280;64718;52.124;6.226;2022-12-31T03:40:16;100304.97;;;10.68;100.00
76022;BME280;64718;52.124;6.226;2022-12-31T03:42:43;100300.09;;;10.62;100.00
76022;BME280;64718;52.124;6.226;2022-12-31T03:45:10;100301.09;;;10.59;100.00
76022;BME280;64718;52.124;6.226;2022-12-31T03:47:37;100300.16;;;10.60;100.00
76022;BME280;64718;52.124;6.226;2022-12-31T03:50:06;100297.81;;;10.56;100.00
76022;BME280;64718;52.124;6.226;2022-12-31T03:52:35;100312.41;;;10.58;100.00
76022;BME280;64718;52.124;6.226;2022-12-31T03:55:02;100314.09;;;10.59;100.00
76022;BME280;64718;52.124;6.226;2022-12-31T03:57:29;100319.53;;;10.55;100.00
76022;BME280;64718;52.124;6.226;2022-12-31T03:59:56;100309.28;;;10.52;100.00
76022;BME280;64718;52.124;6.226;2022-12-31T04:02:22;100315.16;;;10.55;100.00
76022;BME280;64718;52.124;6.226;2022-12-31T04:04:49;100317.25;;;10.49;100.00
76022;BME280;64718;52.124;6.226;2022-12-31T04:07:15;100312.81;;;10.51;100.00
76022;BME280;64718;52.124;6.226;2022-12-31T04:09:43;100320.59;;;10.51;100.00
76022;BME280;64718;52.124;6.226;2022-12-31T04:12:10;100318.00;;;10.51;100.00
76022;BME280;64718;52.124;6.226;2022-12-31T04:14:36;100307.69;;;10.49;100.00
76022;BME280;64718;52.124;6.226;2022-12-31T04:17:03;100312.81;;;10.51;100.00
76022;BME280;64718;52.124;6.226;2022-12-31T04:19:30;100307.59;;;10.51;100.00
76022;BME280;64718;52.124;6.226;2022-12-31T04:21:56;100300.03;;;10.46;100.00
76022;BME280;64718;52.124;6.226;2022-12-31T04:24:23;100306.16;;;10.45;100.00
76022;BME280;64718;52.124;6.226;2022-12-31T04:26:51;100301.97;;;10.42;100.00
76022;BME280;64718;52.124;6.226;2022-12-31T04:29:17;100309.75;;;10.42;100.00
76022;BME280;64718;52.124;6.226;2022-12-31T04:31:44;100306.50;;;10.37;100.00
76022;BME280;64718;52.124;6.226;2022-12-31T04:34:10;100304.63;;;10.41;100.00
76022;BME280;64718;52.124;6.226;2022-12-31T04:36:37;100310.78;;;10.38;100.00
76022;BME280;64718;52.124;6.226;2022-12-31T04:39:03;100303.91;;;10.37;100.00
76022;BME280;64718;52.124;6.226;2022-12-31T04:41:30;100307.44;;;10.36;100.00
76022;BME280;64718;52.124;6.226;2022-12-31T04:43:59;100306.44;;;10.39;100.00
76022;BME280;64718;52.124;6.226;2022-12-31T04:46:28;100291.69;;;10.39;100.00
76022;BME280;64718;52.124;6.226;2022-12-31T04:48:55;100296.03;;;10.39;100.00
76022;BME280;64718;52.124;6.226;2022-12-31T04:51:23;100282.06;;;10.41;100.00
76022;BME280;64718;52.124;6.226;2022-12-31T04:53:50;100290.78;;;10.40;100.00
76022;BME280;64718;52.124;6.226;2022-12-31T04:56:17;100292.47;;;10.41;100.00
76022;BME280;64718;52.124;6.226;2022-12-31T04:58:44;100280.41;;;10.40;100.00
76022;BME280;64718;52.124;6.226;2022-12-31T05:01:12;100287.88;;;10.47;100.00
76022;BME280;64718;52.124;6.226;2022-12-31T05:03:39;100286.19;;;10.45;100.00
76022;BME280;64718;52.124;6.226;2022-12-31T05:06:07;100266.47;;;10.41;100.00
76022;BME280;64718;52.124;6.226;2022-12-31T05:08:35;100266.53;;;10.40;100.00
76022;BME280;64718;52.124;6.226;2022-12-31T05:11:01;100271.44;;;10.46;100.00
76022;BME280;64718;52.124;6.226;2022-12-31T05:13:28;100262.72;;;10.47;100.00
76022;BME280;64718;52.124;6.226;2022-12-31T05:15:54;100260.13;;;10.47;100.00
76022;BME280;64718;52.124;6.226;2022-12-31T05:18:22;100263.72;;;10.44;100.00
76022;BME280;64718;52.124;6.226;2022-12-31T05:20:49;100255.91;;;10.44;100.00
76022;BME280;64718;52.124;6.226;2022-12-31T05:23:16;100278.31;;;10.47;100.00
76022;BME280;64718;52.124;6.226;2022-12-31T05:25:44;100271.28;;;10.49;100.00
76022;BME280;64718;52.124;6.226;2022-12-31T05:28:12;100273.81;;;10.51;100.00
76022;BME280;64718;52.124;6.226;2022-12-31T05:30:38;100285.03;;;10.51;100.00
76022;BME280;64718;52.124;6.226;2022-12-31T05:33:05;100281.44;;;10.54;100.00
76022;BME280;64718;52.124;6.226;2022-12-31T05:35:33;100289.31;;;10.52;100.00
76022;BME280;64718;52.124;6.226;2022-12-31T05:38:00;100306.44;;;10.56;100.00
76022;BME280;64718;52.124;6.226;2022-12-31T05:40:26;100292.53;;;10.57;100.00
76022;BME280;64718;52.124;6.226;2022-12-31T05:42:53;100303.53;;;10.62;100.00
76022;BME280;64718;52.124;6.226;2022-12-31T05:45:20;100296.34;;;10.67;100.00
76022;BME280;64718;52.124;6.226;2022-12-31T05:47:46;100304.22;;;10.66;100.00
76022;BME280;64718;52.124;6.226;2022-12-31T05:50:13;100294.34;;;10.72;100.00
76022;BME280;64718;52.124;6.226;2022-12-31T05:52:42;100290.81;;;10.73;100.00
76022;BME280;64718;52.124;6.226;2022-12-31T05:55:10;100299.44;;;10.74;100.00
76022;BME280;64718;52.124;6.226;2022-12-31T05:57:37;100302.66;;;10.79;100.00
76022;BME280;64718;52.124;6.226;2022-12-31T06:00:05;100273.38;;;10.75;100.00
76022;BME280;64718;52.124;6.226;2022-12-31T06:02:32;100281.75;;;10.81;100.00
76022;BME280;64718;52.124;6.226;2022-12-31T06:04:59;100302.25;;;10.87;100.00
76022;BME280;64718;52.124;6.226;2022-12-31T06:07:26;100318.72;;;10.87;100.00
76022;BME280;64718;52.124;6.226;2022-12-31T06:09:54;100307.63;;;10.84;100.00
76022;BME280;64718;52.124;6.226;2022-12-31T06:12:20;100302.41;;;10.84;100.00
76022;BME280;64718;52.124;6.226;2022-12-31T06:14:47;100297.22;;;10.84;100.00
76022;BME280;64718;52.124;6.226;2022-12-31T06:17:13;100292.09;;;10.82;100.00
76022;BME280;64718;52.124;6.226;2022-12-31T06:19:40;100319.53;;;10.88;100.00
76022;BME280;64718;52.124;6.226;2022-12-31T06:22:06;100310.75;;;10.90;100.00
76022;BME280;64718;52.124;6.226;2022-12-31T06:24:33;100327.09;;;10.92;100.00
76022;BME280;64718;52.124;6.226;2022-12-31T06:27:00;100320.22;;;10.91;100.00
76022;BME280;64718;52.124;6.226;2022-12-31T06:29:27;100322.66;;;10.94;100.00
76022;BME280;64718;52.124;6.226;2022-12-31T06:31:53;100314.19;;;10.91;100.00
76022;BME280;64718;52.124;6.226;2022-12-31T06:34:20;100300.50;;;10.87;100.00
76022;BME280;64718;52.124;6.226;2022-12-31T06:36:46;100312.19;;;10.96;100.00
76022;BME280;64718;52.124;6.226;2022-12-31T06:39:13;100300.72;;;11.00;100.00
76022;BME280;64718;52.124;6.226;2022-12-31T06:41:39;100307.69;;;10.99;100.00
76022;BME280;64718;52.124;6.226;2022-12-31T06:44:07;100309.19;;;11.03;100.00
76022;BME280;64718;52.124;6.226;2022-12-31T06:46:34;100305.44;;;11.09;100.00
76022;BME280;64718;52.124;6.226;2022-12-31T06:49:00;100309.53;;;11.13;100.00
76022;BME280;64718;52.124;6.226;2022-12-31T06:51:27;100307.88;;;11.12;100.00
76022;BME280;64718;52.124;6.226;2022-12-31T06:53:53;100313.91;;;11.13;100.00
76022;BME280;64718;52.124;6.226;2022-12-31T06:56:22;100324.31;;;11.13;100.00
76022;BME280;64718;52.124;6.226;2022-12-31T06:58:50;100332.41;;;11.24;100.00
76022;BME280;64718;52.124;6.226;2022-12-31T07:01:32;100329.63;;;11.27;100.00
76022;BME280;64718;52.124;6.226;2022-12-31T07:04:23;100329.38;;;11.31;100.00
76022;BME280;64718;52.124;6.226;2022-12-31T07:06:53;100328.13;;;11.38;100.00
76022;BME280;64718;52.124;6.226;2022-12-31T07:09:30;100315.69;;;11.44;100.00
76022;BME280;64718;52.124;6.226;2022-12-31T07:12:05;100321.50;;;11.49;100.00
76022;BME280;64718;52.124;6.226;2022-12-31T07:14:39;100326.63;;;11.50;100.00
76022;BME280;64718;52.124;6.226;2022-12-31T07:17:20;100325.22;;;11.60;100.00
76022;BME280;64718;52.124;6.226;2022-12-31T07:19:55;100319.16;;;11.60;100.00
76022;BME280;64718;52.124;6.226;2022-12-31T07:22:25;100309.25;;;11.66;100.00
76022;BME280;64718;52.124;6.226;2022-12-31T07:24:52;100310.41;;;11.77;100.00
76022;BME280;64718;52.124;6.226;2022-12-31T07:30:32;100319.66;;;11.98;100.00
76022;BME280;64718;52.124;6.226;2022-12-31T07:33:15;100303.91;;;12.15;100.00
76022;BME280;64718;52.124;6.226;2022-12-31T07:35:53;100293.41;;;12.31;100.00
76022;BME280;64718;52.124;6.226;2022-12-31T07:38:28;100295.97;;;12.47;100.00
76022;BME280;64718;52.124;6.226;2022-12-31T07:41:04;100282.22;;;12.73;100.00
76022;BME280;64718;52.124;6.226;2022-12-31T07:43:35;100307.53;;;12.71;100.00
76022;BME280;64718;52.124;6.226;2022-12-31T07:46:10;100314.63;;;12.69;100.00
76022;BME280;64718;52.124;6.226;2022-12-31T07:48:40;100324.03;;;12.72;100.00
76022;BME280;64718;52.124;6.226;2022-12-31T07:51:08;100325.16;;;12.67;100.00
76022;BME280;64718;52.124;6.226;2022-12-31T07:53:35;100319.94;;;12.67;100.00
76022;BME280;64718;52.124;6.226;2022-12-31T07:56:04;100327.75;;;12.67;100.00
76022;BME280;64718;52.124;6.226;2022-12-31T07:58:51;100317.13;;;12.71;100.00
76022;BME280;64718;52.124;6.226;2022-12-31T08:01:30;100312.00;;;12.69;100.00
76022;BME280;64718;52.124;6.226;2022-12-31T08:04:02;100324.22;;;12.68;100.00
76022;BME280;64718;52.124;6.226;2022-12-31T08:06:37;100335.97;;;12.61;100.00
76022;BME280;64718;52.124;6.226;2022-12-31T08:09:11;100328.97;;;12.62;100.00
76022;BME280;64718;52.124;6.226;2022-12-31T08:11:48;100331.66;;;12.60;100.00
76022;BME280;64718;52.124;6.226;2022-12-31T08:14:17;100346.41;;;12.61;100.00
76022;BME280;64718;52.124;6.226;2022-12-31T08:16:45;100349.84;;;12.62;100.00
76022;BME280;64718;52.124;6.226;2022-12-31T08:19:21;100353.09;;;12.65;100.00
76022;BME280;64718;52.124;6.226;2022-12-31T08:21:57;100351.59;;;12.61;100.00
76022;BME280;64718;52.124;6.226;2022-12-31T08:24:33;100347.50;;;12.57;100.00
76022;BME280;64718;52.124;6.226;2022-12-31T08:27:10;100356.16;;;12.58;100.00
76022;BME280;64718;52.124;6.226;2022-12-31T08:29:44;100350.84;;;12.59;100.00
76022;BME280;64718;52.124;6.226;2022-12-31T08:32:19;100351.69;;;12.60;100.00
76022;BME280;64718;52.124;6.226;2022-12-31T08:34:55;100345.56;;;12.61;100.00
76022;BME280;64718;52.124;6.226;2022-12-31T08:37:29;100359.69;;;12.73;100.00
76022;BME280;64718;52.124;6.226;2022-12-31T08:40:10;100360.91;;;12.81;100.00
76022;BME280;64718;52.124;6.226;2022-12-31T08:42:45;100369.94;;;12.76;99.90
76022;BME280;64718;52.124;6.226;2022-12-31T08:45:19;100360.16;;;12.79;98.60
76022;BME280;64718;52.124;6.226;2022-12-31T08:47:53;100373.72;;;12.70;99.35
76022;BME280;64718;52.124;6.226;2022-12-31T08:50:25;100366.56;;;12.74;98.65
76022;BME280;64718;52.124;6.226;2022-12-31T08:52:51;100378.44;;;12.63;99.16
76022;BME280;64718;52.124;6.226;2022-12-31T08:55:18;100385.88;;;12.55;99.67
76022;BME280;64718;52.124;6.226;2022-12-31T08:57:54;100393.81;;;12.54;99.35
76022;BME280;64718;52.124;6.226;2022-12-31T09:00:25;100393.63;;;12.57;99.22
76022;BME280;64718;52.124;6.226;2022-12-31T09:03:15;100404.31;;;12.52;99.24
76022;BME280;64718;52.124;6.226;2022-12-31T09:05:52;100433.28;;;12.48;98.94
76022;BME280;64718;52.124;6.226;2022-12-31T09:08:28;100427.91;;;12.51;98.69
76022;BME280;64718;52.124;6.226;2022-12-31T09:11:00;100461.91;;;12.49;99.17
76022;BME280;64718;52.124;6.226;2022-12-31T09:13:36;100462.50;;;12.39;99.24
76022;BME280;64718;52.124;6.226;2022-12-31T09:16:11;100475.63;;;12.37;99.93
76022;BME280;64718;52.124;6.226;2022-12-31T09:18:42;100457.28;;;12.39;99.82
76022;BME280;64718;52.124;6.226;2022-12-31T09:21:12;100474.28;;;12.46;99.68
76022;BME280;64718;52.124;6.226;2022-12-31T09:23:40;100463.56;;;12.50;99.44
76022;BME280;64718;52.124;6.226;2022-12-31T09:26:27;100467.03;;;12.51;99.44
76022;BME280;64718;52.124;6.226;2022-12-31T09:29:02;100470.97;;;12.58;98.92
76022;BME280;64718;52.124;6.226;2022-12-31T09:31:34;100480.97;;;12.65;98.80
76022;BME280;64718;52.124;6.226;2022-12-31T09:34:06;100490.16;;;12.73;97.94
76022;BME280;64718;52.124;6.226;2022-12-31T09:36:40;100488.97;;;12.78;97.52
76022;BME280;64718;52.124;6.226;2022-12-31T09:39:12;100493.25;;;12.79;97.66
76022;BME280;64718;52.124;6.226;2022-12-31T09:48:12;100496.75;;;12.94;97.15
76022;BME280;64718;52.124;6.226;2022-12-31T09:51:21;100495.38;;;13.03;96.24
76022;BME280;64718;52.124;6.226;2022-12-31T09:56:41;100493.59;;;13.03;96.66
76022;BME280;64718;52.124;6.226;2022-12-31T09:59:14;100507.03;;;13.11;96.17
76022;BME280;64718;52.124;6.226;2022-12-31T10:01:49;100490.88;;;13.20;95.64
76022;BME280;64718;52.124;6.226;2022-12-31T10:04:32;100496.31;;;13.16;96.22
76022;BME280;64718;52.124;6.226;2022-12-31T10:07:14;100489.00;;;13.22;95.73
76022;BME280;64718;52.124;6.226;2022-12-31T10:09:53;100499.34;;;13.24;95.72
76022;BME280;64718;52.124;6.226;2022-12-31T10:12:40;100501.03;;;13.25;95.70
76022;BME280;64718;52.124;6.226;2022-12-31T10:15:34;100499.63;;;13.19;96.25
76022;BME280;64718;52.124;6.226;2022-12-31T10:18:12;100511.66;;;13.22;96.21
76022;BME280;64718;52.124;6.226;2022-12-31T10:20:50;100515.13;;;13.22;96.40
76022;BME280;64718;52.124;6.226;2022-12-31T10:23:37;100519.41;;;13.23;96.21
76022;BME280;64718;52.124;6.226;2022-12-31T10:26:36;100504.50;;;13.25;96.29
76022;BME280;64718;52.124;6.226;2022-12-31T10:29:16;100510.22;;;13.32;96.21
76022;BME280;64718;52.124;6.226;2022-12-31T10:31:56;100510.69;;;13.39;96.23
76022;BME280;64718;52.124;6.226;2022-12-31T10:34:33;100499.41;;;13.52;95.55
76022;BME280;64718;52.124;6.226;2022-12-31T10:37:07;100503.91;;;13.65;94.94
76022;BME280;64718;52.124;6.226;2022-12-31T10:39:47;100492.97;;;13.86;93.32
76022;BME280;64718;52.124;6.226;2022-12-31T10:42:40;100495.13;;;13.94;93.68
76022;BME280;64718;52.124;6.226;2022-12-31T10:45:32;100500.81;;;14.01;93.22
76022;BME280;64718;52.124;6.226;2022-12-31T10:51:43;100485.38;;;14.10;92.90
76022;BME280;64718;52.124;6.226;2022-12-31T10:54:32;100496.13;;;14.06;93.32
76022;BME280;64718;52.124;6.226;2022-12-31T11:00:13;100498.75;;;14.06;93.22
76022;BME280;64718;52.124;6.226;2022-12-31T11:06:16;100488.94;;;14.09;92.82
76022;BME280;64718;52.124;6.226;2022-12-31T11:09:19;100480.25;;;14.09;92.83
76022;BME280;64718;52.124;6.226;2022-12-31T11:11:52;100486.88;;;14.14;92.65
76022;BME280;64718;52.124;6.226;2022-12-31T11:14:37;100486.69;;;14.17;92.41
76022;BME280;64718;52.124;6.226;2022-12-31T11:17:20;100489.38;;;14.16;92.35
76022;BME280;64718;52.124;6.226;2022-12-31T11:20:02;100491.72;;;14.20;92.80
76022;BME280;64718;52.124;6.226;2022-12-31T11:22:46;100493.19;;;14.24;92.78
76022;BME280;64718;52.124;6.226;2022-12-31T11:25:26;100500.75;;;14.29;92.36
76022;BME280;64718;52.124;6.226;2022-12-31T11:28:06;100505.44;;;14.24;93.33
76022;BME280;64718;52.124;6.226;2022-12-31T11:30:40;100497.91;;;14.05;94.62
76022;BME280;64718;52.124;6.226;2022-12-31T11:33:23;100503.81;;;13.95;95.78
76022;BME280;64718;52.124;6.226;2022-12-31T11:36:08;100511.34;;;13.85;96.44
76022;BME280;64718;52.124;6.226;2022-12-31T11:38:44;100510.69;;;13.81;96.42
76022;BME280;64718;52.124;6.226;2022-12-31T11:41:22;100488.66;;;13.85;96.22
76022;BME280;64718;52.124;6.226;2022-12-31T11:44:00;100480.81;;;13.85;96.00
76022;BME280;64718;52.124;6.226;2022-12-31T11:46:39;100476.19;;;13.90;95.62
76022;BME280;64718;52.124;6.226;2022-12-31T11:49:23;100480.28;;;13.95;95.63
76022;BME280;64718;52.124;6.226;2022-12-31T11:52:06;100483.44;;;14.00;95.24
76022;BME280;64718;52.124;6.226;2022-12-31T11:57:45;100486.28;;;14.23;93.13
76022;BME280;64718;52.124;6.226;2022-12-31T12:00:17;100483.47;;;14.27;92.59
76022;BME280;64718;52.124;6.226;2022-12-31T12:02:46;100479.44;;;14.35;92.01
76022;BME280;64718;52.124;6.226;2022-12-31T12:05:18;100490.44;;;14.40;91.45
76022;BME280;64718;52.124;6.226;2022-12-31T12:07:45;100471.84;;;14.45;90.66
76022;BME280;64718;52.124;6.226;2022-12-31T12:10:23;100479.25;;;14.52;90.24
76022;BME280;64718;52.124;6.226;2022-12-31T12:12:51;100489.22;;;14.60;89.17
76022;BME280;64718;52.124;6.226;2022-12-31T12:15:21;100497.06;;;14.60;89.04
76022;BME280;64718;52.124;6.226;2022-12-31T12:17:51;100511.41;;;14.54;88.96
76022;BME280;64718;52.124;6.226;2022-12-31T12:20:25;100495.03;;;14.51;89.24
76022;BME280;64718;52.124;6.226;2022-12-31T12:22:55;100500.72;;;14.58;88.84
76022;BME280;64718;52.124;6.226;2022-12-31T12:25:24;100501.75;;;14.55;88.46
76022;BME280;64718;52.124;6.226;2022-12-31T12:27:51;100503.44;;;14.56;88.84
76022;BME280;64718;52.124;6.226;2022-12-31T12:30:20;100489.88;;;14.76;86.85
76022;BME280;64718;52.124;6.226;2022-12-31T12:32:52;100502.34;;;14.73;87.32
76022;BME280;64718;52.124;6.226;2022-12-31T12:35:25;100496.91;;;14.76;86.46
76022;BME280;64718;52.124;6.226;2022-12-31T12:37:59;100511.22;;;14.70;86.78
76022;BME280;64718;52.124;6.226;2022-12-31T12:40:27;100503.28;;;14.72;86.76
76022;BME280;64718;52.124;6.226;2022-12-31T12:42:54;100513.00;;;14.70;86.65
76022;BME280;64718;52.124;6.226;2022-12-31T12:45:23;100520.72;;;14.59;87.92
76022;BME280;64718;52.124;6.226;2022-12-31T12:47:55;100511.19;;;14.58;87.53
76022;BME280;64718;52.124;6.226;2022-12-31T12:50:31;100511.28;;;14.56;88.32
76022;BME280;64718;52.124;6.226;2022-12-31T12:53:27;100501.94;;;14.38;89.05
76022;BME280;64718;52.124;6.226;2022-12-31T12:56:04;100507.91;;;14.40;89.05
76022;BME280;64718;52.124;6.226;2022-12-31T12:58:45;100513.75;;;14.31;89.68
76022;BME280;64718;52.124;6.226;2022-12-31T13:01:23;100514.97;;;14.25;90.10
76022;BME280;64718;52.124;6.226;2022-12-31T13:04:26;100505.09;;;14.16;90.51
76022;BME280;64718;52.124;6.226;2022-12-31T13:07:10;100513.31;;;14.10;91.28
76022;BME280;64718;52.124;6.226;2022-12-31T13:09:53;100520.78;;;14.16;90.96
76022;BME280;64718;52.124;6.226;2022-12-31T13:12:28;100522.56;;;14.15;90.91
76022;BME280;64718;52.124;6.226;2022-12-31T13:15:01;100506.56;;;14.20;90.53
76022;BME280;64718;52.124;6.226;2022-12-31T13:17:43;100508.34;;;14.19;90.59
76022;BME280;64718;52.124;6.226;2022-12-31T13:20:15;100515.44;;;14.17;90.51
76022;BME280;64718;52.124;6.226;2022-12-31T13:22:53;100516.47;;;14.15;90.67
76022;BME280;64718;52.124;6.226;2022-12-31T13:25:28;100519.75;;;14.18;90.27
76022;BME280;64718;52.124;6.226;2022-12-31T13:28:01;100521.72;;;14.15;90.40
76022;BME280;64718;52.124;6.226;2022-12-31T13:30:31;100517.81;;;14.08;91.16
76022;BME280;64718;52.124;6.226;2022-12-31T13:33:03;100523.88;;;14.08;90.58
76022;BME280;64718;52.124;6.226;2022-12-31T13:35:36;100534.91;;;13.99;91.19
76022;BME280;64718;52.124;6.226;2022-12-31T13:38:12;100521.44;;;14.05;90.85
76022;BME280;64718;52.124;6.226;2022-12-31T13:40:45;100521.81;;;14.13;90.11